X  Zamknij Lotniskowe dane METAR     ETAR Ramstein Air Base
Temperatura
11°C Temperatura
7°C Punkt rosy
77% Wilgotność



Wiatr
10 MPH
16 KM/H
4 M/S
9 KTS



40°
NE
Warunki bieżące

Pochmurno Pochmurno
Ciśnienie 999.66 (hPa) - 29.52 (inHg)
Widoczność 6 (mil) - 9.7 (km)
Lotnisko
Kod lotniska ETAR

Położenie: Ramstein Air Base
Odległość: 25 (mi)

Metar:
ETAR 261355Z AUTO 04009KT 9999 BKN025 11/07 A2952 RMK AO2 BKN V OVC CIG 022 RWY26 SLP002 T01070072 $

Czas: 26-02-2024 14:55 CET